createdAt,value
2019-06-01T00:00:11.396Z,20.23
2019-06-01T00:01:06.679Z,20.25
2019-06-01T00:02:05.659Z,20.17
2019-06-01T00:03:05.650Z,20.19
2019-06-01T00:04:05.636Z,20.20
2019-06-01T00:05:05.628Z,20.17
2019-06-01T00:06:05.624Z,20.16
2019-06-01T00:07:05.604Z,20.19
2019-06-01T00:08:05.593Z,20.13
2019-06-01T00:09:05.582Z,20.13
2019-06-01T00:10:05.569Z,20.12
2019-06-01T00:11:05.572Z,20.02
2019-06-01T00:12:05.549Z,20.00
2019-06-01T00:13:05.538Z,20.04
2019-06-01T00:14:05.530Z,20.08
2019-06-01T00:15:05.519Z,20.02
2019-06-01T00:16:05.522Z,19.98
2019-06-01T00:17:05.506Z,19.92
2019-06-01T00:18:05.484Z,19.94
2019-06-01T00:19:05.473Z,20.02
2019-06-01T00:20:05.460Z,20.00
2019-06-01T00:21:05.460Z,19.94
2019-06-01T00:22:05.441Z,19.92
2019-06-01T00:23:05.436Z,19.95
2019-06-01T00:24:05.416Z,19.92
2019-06-01T00:25:05.405Z,19.92
2019-06-01T00:26:05.412Z,19.95
2019-06-01T00:27:05.384Z,19.90
2019-06-01T00:28:05.375Z,19.87
2019-06-01T00:29:05.365Z,19.85
2019-06-01T00:30:05.352Z,19.86
2019-06-01T00:31:05.350Z,19.89
2019-06-01T00:32:05.328Z,19.94
2019-06-01T00:33:05.319Z,19.87
2019-06-01T00:34:05.311Z,19.86
2019-06-01T00:35:05.300Z,19.86
2019-06-01T00:36:05.296Z,19.89
2019-06-01T00:37:05.282Z,19.90
2019-06-01T00:38:05.263Z,19.87
2019-06-01T00:39:05.260Z,19.80
2019-06-01T00:40:05.252Z,19.92
2019-06-01T00:41:05.243Z,19.92
2019-06-01T00:42:05.218Z,19.89
2019-06-01T00:43:05.221Z,19.90
2019-06-01T00:44:05.198Z,19.76
2019-06-01T00:45:05.187Z,19.87
2019-06-01T00:46:05.188Z,19.79
2019-06-01T00:47:05.178Z,19.82
2019-06-01T00:48:05.156Z,19.90
2019-06-01T00:49:05.144Z,19.79
2019-06-01T00:50:05.133Z,19.72
2019-06-01T00:51:05.169Z,19.80
2019-06-01T00:52:05.109Z,19.75
2019-06-01T00:53:05.102Z,19.76
2019-06-01T00:54:05.087Z,19.75
2019-06-01T00:55:05.076Z,19.79
2019-06-01T00:56:05.066Z,19.80
2019-06-01T00:57:05.066Z,19.70
2019-06-01T00:58:05.044Z,19.75
2019-06-01T00:59:05.042Z,19.82
2019-06-01T01:00:05.023Z,19.80
2019-06-01T01:01:05.010Z,19.76
2019-06-01T01:02:05.014Z,19.68
2019-06-01T01:03:04.993Z,19.75
2019-06-01T01:04:04.977Z,19.72
2019-06-01T01:05:04.966Z,19.76
2019-06-01T01:06:04.958Z,19.79
2019-06-01T01:07:04.953Z,19.72
2019-06-01T01:08:04.934Z,19.80
2019-06-01T01:09:04.929Z,19.71
2019-06-01T01:10:04.912Z,19.68
2019-06-01T01:11:04.901Z,19.75
2019-06-01T01:12:04.901Z,19.72
2019-06-01T01:13:04.892Z,19.71
2019-06-01T01:14:04.867Z,19.80
2019-06-01T01:15:04.869Z,19.76
2019-06-01T01:16:04.845Z,19.78
2019-06-01T01:17:04.848Z,19.71
2019-06-01T01:18:04.825Z,19.71
2019-06-01T01:19:04.812Z,19.70
2019-06-01T01:20:04.804Z,19.65
2019-06-01T01:21:04.794Z,19.75
2019-06-01T01:22:04.792Z,19.78
2019-06-01T01:23:04.767Z,19.62
2019-06-01T01:24:04.758Z,19.61
2019-06-01T01:25:04.746Z,19.52
2019-06-01T01:26:04.758Z,19.61
2019-06-01T01:27:04.736Z,19.65
2019-06-01T01:28:04.715Z,19.55
2019-06-01T01:29:04.705Z,19.55
2019-06-01T01:30:04.708Z,19.62
2019-06-01T01:31:13.285Z,19.53
2019-06-01T01:32:05.679Z,19.62
2019-06-01T01:33:04.663Z,19.50
2019-06-01T01:34:04.648Z,19.61
2019-06-01T01:35:04.643Z,19.55
2019-06-01T01:36:04.636Z,19.53
2019-06-01T01:37:04.624Z,19.57
2019-06-01T01:38:04.614Z,19.55
2019-06-01T01:39:04.595Z,19.61
2019-06-01T01:40:04.584Z,19.57
2019-06-01T01:41:04.574Z,19.58
2019-06-01T01:42:04.572Z,19.53
2019-06-01T01:43:04.548Z,19.45
2019-06-01T01:44:04.539Z,19.43
2019-06-01T01:45:04.529Z,19.40
2019-06-01T01:46:04.521Z,19.38
2019-06-01T01:47:04.521Z,19.43
2019-06-01T01:48:04.495Z,19.46
2019-06-01T01:49:04.486Z,19.45
2019-06-01T01:50:04.505Z,19.43
2019-06-01T01:51:04.466Z,19.38
2019-06-01T01:52:04.459Z,19.49
2019-06-01T01:53:04.449Z,19.34
2019-06-01T01:54:04.640Z,19.46
2019-06-01T01:55:04.422Z,19.39
2019-06-01T01:56:04.409Z,19.30
2019-06-01T01:57:07.092Z,19.28
2019-06-01T01:58:04.386Z,19.32
2019-06-01T01:59:04.465Z,19.35
2019-06-01T02:00:04.368Z,19.34
2019-06-01T02:01:20.493Z,19.27
2019-06-01T02:02:05.351Z,19.34
2019-06-01T02:03:04.328Z,19.34
2019-06-01T02:04:04.319Z,19.34
2019-06-01T02:05:04.307Z,19.30
2019-06-01T02:06:04.298Z,19.30
2019-06-01T02:07:04.476Z,19.39
2019-06-01T02:08:04.281Z,19.30
2019-06-01T02:09:04.265Z,19.25
2019-06-01T02:10:04.275Z,19.35
2019-06-01T02:11:04.248Z,19.17
2019-06-01T02:12:04.235Z,19.25
2019-06-01T02:13:04.228Z,19.24
2019-06-01T02:14:04.212Z,19.20
2019-06-01T02:15:04.276Z,19.17
2019-06-01T02:16:04.463Z,19.25
2019-06-01T02:17:04.178Z,19.24
2019-06-01T02:18:04.185Z,19.21
2019-06-01T02:19:04.186Z,19.16
2019-06-01T02:20:04.146Z,19.16
2019-06-01T02:21:04.132Z,19.17
2019-06-01T02:22:04.123Z,19.17
2019-06-01T02:23:04.124Z,19.15
2019-06-01T02:24:04.104Z,19.17
2019-06-01T02:25:04.112Z,19.06
2019-06-01T02:26:04.087Z,19.09
2019-06-01T02:27:04.075Z,19.12
2019-06-01T02:28:04.067Z,19.07
2019-06-01T02:29:04.426Z,19.13
2019-06-01T02:30:05.672Z,19.15
2019-06-01T02:31:04.210Z,19.10
2019-06-01T02:32:04.786Z,19.02
2019-06-01T02:33:04.700Z,19.16
2019-06-01T02:34:06.167Z,19.09
2019-06-01T02:35:05.010Z,19.12
2019-06-01T02:36:05.299Z,19.10
2019-06-01T02:37:04.596Z,19.13
2019-06-01T02:38:05.766Z,19.13
2019-06-01T02:39:05.252Z,19.07
2019-06-01T02:40:05.448Z,19.09
2019-06-01T02:41:05.765Z,19.01
2019-06-01T02:42:05.424Z,19.13
2019-06-01T02:43:06.448Z,19.12
2019-06-01T02:44:06.127Z,19.12
2019-06-01T02:45:05.598Z,19.15
2019-06-01T02:46:06.646Z,19.13
2019-06-01T02:47:04.537Z,19.05
2019-06-01T02:48:05.713Z,19.02
2019-06-01T02:49:04.224Z,19.02
2019-06-01T02:50:04.493Z,18.97
2019-06-01T02:51:04.052Z,19.02
2019-06-01T02:52:03.793Z,19.02
2019-06-01T02:53:03.796Z,18.99
2019-06-01T02:54:04.143Z,18.97
2019-06-01T02:55:04.625Z,18.91
2019-06-01T02:56:04.277Z,18.97
2019-06-01T02:57:04.128Z,18.94
2019-06-01T02:58:04.378Z,18.97
2019-06-01T02:59:04.405Z,18.91
2019-06-01T03:00:04.930Z,18.97
2019-06-01T03:01:05.187Z,18.87
2019-06-01T03:02:10.132Z,18.99
2019-06-01T03:03:04.905Z,19.01
2019-06-01T03:04:03.665Z,18.94
2019-06-01T03:05:03.653Z,18.93
2019-06-01T03:06:03.646Z,18.91
2019-06-01T03:07:05.134Z,18.94
2019-06-01T03:08:03.628Z,18.96
2019-06-01T03:09:03.855Z,18.91
2019-06-01T03:10:05.311Z,18.97
2019-06-01T03:11:03.835Z,18.96
2019-06-01T03:12:04.283Z,18.84
2019-06-01T03:13:04.183Z,18.86
2019-06-01T03:14:04.497Z,18.93
2019-06-01T03:15:04.435Z,18.94
2019-06-01T03:16:04.807Z,18.87
2019-06-01T03:17:03.973Z,18.94
2019-06-01T03:18:03.565Z,18.99
2019-06-01T03:19:03.759Z,18.90
2019-06-01T03:20:04.627Z,18.91
2019-06-01T03:21:05.036Z,18.91
2019-06-01T03:22:05.304Z,18.90
2019-06-01T03:23:03.766Z,18.89
2019-06-01T03:24:03.814Z,18.82
2019-06-01T03:25:03.870Z,18.87
2019-06-01T03:26:04.279Z,18.91
2019-06-01T03:27:04.607Z,18.90
2019-06-01T03:28:04.114Z,18.94
2019-06-01T03:29:04.986Z,18.94
2019-06-01T03:30:05.799Z,18.93
2019-06-01T03:31:05.645Z,18.93
2019-06-01T03:32:23.954Z,18.90
2019-06-01T03:33:06.075Z,18.84
2019-06-01T03:34:04.436Z,18.82
2019-06-01T03:35:03.321Z,18.76
2019-06-01T03:36:03.315Z,18.75
2019-06-01T03:37:03.304Z,18.79
2019-06-01T03:38:03.290Z,18.82
2019-06-01T03:39:04.011Z,18.82
2019-06-01T03:40:06.861Z,18.90
2019-06-01T03:41:04.255Z,18.78
2019-06-01T03:42:03.423Z,18.79
2019-06-01T03:43:04.291Z,18.78
2019-06-01T03:44:04.410Z,18.82
2019-06-01T03:45:03.525Z,18.78
2019-06-01T03:46:04.529Z,18.74
2019-06-01T03:47:03.839Z,18.72
2019-06-01T03:48:03.182Z,18.72
2019-06-01T03:49:03.831Z,18.78
2019-06-01T03:50:03.170Z,18.74
2019-06-01T03:51:03.636Z,18.79
2019-06-01T03:52:03.141Z,18.72
2019-06-01T03:53:03.846Z,18.66
2019-06-01T03:54:05.055Z,18.75
2019-06-01T03:55:03.691Z,18.65
2019-06-01T03:56:03.350Z,18.71
2019-06-01T03:57:03.699Z,18.71
2019-06-01T03:58:03.073Z,18.65
2019-06-01T03:59:03.155Z,18.69
2019-06-01T04:00:03.351Z,18.71
2019-06-01T04:01:03.171Z,18.66
2019-06-01T04:02:03.077Z,18.65
2019-06-01T04:03:03.018Z,18.60
2019-06-01T04:04:03.127Z,18.66
2019-06-01T04:05:03.568Z,18.71
2019-06-01T04:06:03.311Z,18.62
2019-06-01T04:07:03.437Z,18.60
2019-06-01T04:08:03.452Z,18.59
2019-06-01T04:09:03.564Z,18.65
2019-06-01T04:10:03.889Z,18.62
2019-06-01T04:11:03.526Z,18.71
2019-06-01T04:12:03.516Z,18.72
2019-06-01T04:13:03.549Z,18.66
2019-06-01T04:14:03.433Z,18.62
2019-06-01T04:15:08.490Z,18.64
2019-06-01T04:16:03.872Z,18.65
2019-06-01T04:17:04.158Z,18.65
2019-06-01T04:18:03.874Z,18.64
2019-06-01T04:19:03.782Z,18.60
2019-06-01T04:20:03.925Z,18.64
2019-06-01T04:21:04.178Z,18.64
2019-06-01T04:22:03.934Z,18.64
2019-06-01T04:23:04.479Z,18.66
2019-06-01T04:24:03.946Z,18.69
2019-06-01T04:25:03.934Z,18.68
2019-06-01T04:26:04.101Z,18.66
2019-06-01T04:27:04.049Z,18.65
2019-06-01T04:28:03.888Z,18.69
2019-06-01T04:29:04.760Z,18.68
2019-06-01T04:30:02.740Z,18.75
2019-06-01T04:31:02.713Z,18.71
2019-06-01T04:32:02.700Z,18.82
2019-06-01T04:33:02.685Z,18.75
2019-06-01T04:34:02.709Z,18.78
2019-06-01T04:35:03.458Z,18.78
2019-06-01T04:36:02.764Z,18.78
2019-06-01T04:37:03.562Z,18.76
2019-06-01T04:38:03.028Z,18.89
2019-06-01T04:39:03.366Z,18.83
2019-06-01T04:40:03.334Z,18.83
2019-06-01T04:41:03.578Z,18.83
2019-06-01T04:42:03.480Z,18.89
2019-06-01T04:43:03.687Z,18.89
2019-06-01T04:44:03.698Z,18.90
2019-06-01T04:45:04.262Z,18.89
2019-06-01T04:46:02.554Z,18.87
2019-06-01T04:47:02.539Z,18.91
2019-06-01T04:48:02.525Z,18.93
2019-06-01T04:49:02.555Z,18.97
2019-06-01T04:50:02.508Z,18.96
2019-06-01T04:51:02.494Z,18.90
2019-06-01T04:52:02.480Z,19.01
2019-06-01T04:53:02.468Z,18.97
2019-06-01T04:54:02.457Z,18.99
2019-06-01T04:55:02.460Z,18.99
2019-06-01T04:56:02.439Z,19.01
2019-06-01T04:57:02.423Z,19.02
2019-06-01T04:58:02.413Z,19.10
2019-06-01T04:59:02.404Z,19.13
2019-06-01T05:00:03.855Z,18.99
2019-06-01T05:01:03.379Z,19.09
2019-06-01T05:02:02.394Z,19.06
2019-06-01T05:03:06.729Z,19.02
2019-06-01T05:04:02.348Z,19.02
2019-06-01T05:05:02.361Z,19.06
2019-06-01T05:06:02.340Z,19.15
2019-06-01T05:07:02.316Z,19.15
2019-06-01T05:08:02.301Z,19.17
2019-06-01T05:09:02.293Z,19.17
2019-06-01T05:10:02.291Z,19.20
2019-06-01T05:11:05.224Z,19.21
2019-06-01T05:12:02.258Z,19.24
2019-06-01T05:13:02.247Z,19.30
2019-06-01T05:14:02.240Z,19.34
2019-06-01T05:15:02.239Z,19.32
2019-06-01T05:16:02.220Z,19.35
2019-06-01T05:17:02.253Z,19.39
2019-06-01T05:18:02.194Z,19.35
2019-06-01T05:19:02.191Z,19.40
2019-06-01T05:20:02.182Z,19.50
2019-06-01T05:21:02.161Z,19.53
2019-06-01T05:22:02.153Z,19.52
2019-06-01T05:23:02.142Z,19.61
2019-06-01T05:24:02.129Z,19.60
2019-06-01T05:25:02.172Z,19.64
2019-06-01T05:26:02.140Z,19.68
2019-06-01T05:27:02.094Z,19.64
2019-06-01T05:28:02.082Z,19.72
2019-06-01T05:29:02.072Z,19.71
2019-06-01T05:30:02.071Z,19.65
2019-06-01T05:31:02.053Z,19.75
2019-06-01T05:32:02.037Z,19.82
2019-06-01T05:33:02.029Z,19.87
2019-06-01T05:34:02.021Z,19.92
2019-06-01T05:35:02.016Z,19.87
2019-06-01T05:36:01.999Z,19.83
2019-06-01T05:37:01.983Z,19.86
2019-06-01T05:38:01.974Z,19.87
2019-06-01T05:39:01.978Z,19.87
2019-06-01T05:40:01.986Z,19.92
2019-06-01T05:41:01.940Z,19.95
2019-06-01T05:42:01.937Z,19.94
2019-06-01T05:43:01.920Z,19.92
2019-06-01T05:44:01.907Z,19.92
2019-06-01T05:45:01.898Z,19.97
2019-06-01T05:46:01.934Z,20.04
2019-06-01T05:47:01.891Z,20.02
2019-06-01T05:48:01.877Z,20.02
2019-06-01T05:49:01.853Z,20.02
2019-06-01T05:50:01.847Z,20.04
2019-06-01T05:51:01.842Z,19.97
2019-06-01T05:52:01.818Z,20.07
2019-06-01T05:53:01.807Z,20.04
2019-06-01T05:54:01.806Z,20.15
2019-06-01T05:55:01.795Z,20.08
2019-06-01T05:56:01.799Z,20.13
2019-06-01T05:57:01.788Z,20.02
2019-06-01T05:58:01.757Z,20.19
2019-06-01T05:59:01.745Z,20.12
2019-06-01T06:00:01.734Z,20.20
2019-06-01T06:01:01.735Z,20.16
2019-06-01T06:02:01.732Z,20.16
2019-06-01T06:03:01.698Z,20.15
2019-06-01T06:04:01.686Z,20.20
2019-06-01T06:05:01.675Z,20.15
2019-06-01T06:06:01.678Z,20.20
2019-06-01T06:07:01.654Z,20.30
2019-06-01T06:08:01.645Z,20.30
2019-06-01T06:09:01.633Z,20.27
2019-06-01T06:10:01.626Z,20.30
2019-06-01T06:11:01.622Z,20.30
2019-06-01T06:12:01.611Z,20.30
2019-06-01T06:13:01.590Z,20.30
2019-06-01T06:14:01.594Z,20.37
2019-06-01T06:15:01.578Z,20.35
2019-06-01T06:16:01.564Z,20.38
2019-06-01T06:17:01.544Z,20.40
2019-06-01T06:18:01.541Z,20.40
2019-06-01T06:19:01.521Z,20.34
2019-06-01T06:20:01.510Z,20.37
2019-06-01T06:21:01.510Z,20.41
2019-06-01T06:22:01.497Z,20.35
2019-06-01T06:23:01.478Z,20.38
2019-06-01T06:24:01.468Z,20.31
2019-06-01T06:25:01.472Z,20.35
2019-06-01T06:26:01.463Z,20.34
2019-06-01T06:27:01.434Z,20.41
2019-06-01T06:28:01.425Z,20.61
2019-06-01T06:29:01.420Z,20.51
2019-06-01T06:30:01.402Z,20.54
2019-06-01T06:31:01.425Z,20.50
2019-06-01T06:32:01.381Z,20.51
2019-06-01T06:33:01.388Z,20.51
2019-06-01T06:34:01.360Z,20.46
2019-06-01T06:35:01.362Z,20.53
2019-06-01T06:36:01.341Z,20.53
2019-06-01T06:37:01.337Z,20.53
2019-06-01T06:38:01.316Z,20.57
2019-06-01T06:39:01.307Z,20.64
2019-06-01T06:40:01.294Z,20.58
2019-06-01T06:41:01.285Z,20.56
2019-06-01T06:42:01.359Z,20.58
2019-06-01T06:43:01.260Z,20.75
2019-06-01T06:44:01.252Z,20.90
2019-06-01T06:45:03.530Z,20.90
2019-06-01T06:46:01.227Z,20.87
2019-06-01T06:47:01.228Z,20.76
2019-06-01T06:48:01.207Z,20.76
2019-06-01T06:49:01.196Z,20.88
2019-06-01T06:50:01.189Z,20.82
2019-06-01T06:51:01.201Z,20.82
2019-06-01T06:52:01.177Z,20.90
2019-06-01T06:53:01.203Z,20.97
2019-06-01T06:54:01.149Z,21.19
2019-06-01T06:55:01.130Z,21.26
2019-06-01T06:56:01.126Z,21.30
2019-06-01T06:57:01.119Z,21.37
2019-06-01T06:58:01.107Z,21.40
2019-06-01T06:59:01.084Z,21.51
2019-06-01T07:00:01.164Z,21.43
2019-06-01T07:01:01.074Z,21.53
2019-06-01T07:02:01.064Z,21.59
2019-06-01T07:03:01.039Z,21.68
2019-06-01T07:04:12.375Z,21.75
2019-06-01T07:05:02.047Z,21.82
2019-06-01T07:06:01.010Z,21.93
2019-06-01T07:07:01.006Z,22.01
2019-06-01T07:08:00.989Z,22.11
2019-06-01T07:09:00.988Z,22.14
2019-06-01T07:10:00.986Z,22.14
2019-06-01T07:11:00.955Z,22.14
2019-06-01T07:12:00.952Z,22.23
2019-06-01T07:13:00.936Z,22.27
2019-06-01T07:14:00.932Z,22.27
2019-06-01T07:15:00.908Z,22.36
2019-06-01T07:16:03.733Z,22.33
2019-06-01T07:17:00.907Z,22.31
2019-06-01T07:18:00.877Z,22.46
2019-06-01T07:19:00.869Z,22.45
2019-06-01T07:20:00.856Z,22.46
2019-06-01T07:21:00.863Z,22.56
2019-06-01T07:22:00.845Z,22.60
2019-06-01T07:23:00.851Z,22.52
2019-06-01T07:24:00.820Z,22.60
2019-06-01T07:25:00.799Z,22.61
2019-06-01T07:26:00.803Z,22.59
2019-06-01T07:27:00.789Z,22.54
2019-06-01T07:28:00.781Z,22.67
2019-06-01T07:29:00.756Z,22.69
2019-06-01T07:30:00.775Z,22.70
2019-06-01T07:31:00.736Z,22.78
2019-06-01T07:32:00.734Z,22.81
2019-06-01T07:33:00.712Z,22.86
2019-06-01T07:34:00.704Z,22.79
2019-06-01T07:35:01.388Z,22.82
2019-06-01T07:36:00.680Z,22.84
2019-06-01T07:37:00.697Z,22.91
2019-06-01T07:38:00.658Z,22.81
2019-06-01T07:39:00.649Z,22.94
2019-06-01T07:40:00.641Z,23.00
2019-06-01T07:41:00.625Z,22.96
2019-06-01T07:42:00.634Z,22.97
2019-06-01T07:43:00.605Z,23.01
2019-06-01T07:44:00.593Z,22.96
2019-06-01T07:45:00.583Z,23.01
2019-06-01T07:46:00.572Z,23.11
2019-06-01T07:47:00.590Z,23.11
2019-06-01T07:48:00.567Z,23.09
2019-06-01T07:49:00.544Z,23.18
2019-06-01T07:50:00.528Z,23.16
2019-06-01T07:51:00.518Z,23.26
2019-06-01T07:52:12.215Z,23.22
2019-06-01T07:53:01.505Z,23.22
2019-06-01T07:54:00.529Z,23.34
2019-06-01T07:55:00.481Z,23.32
2019-06-01T07:56:00.464Z,23.32
2019-06-01T07:57:00.456Z,23.38
2019-06-01T07:58:00.468Z,23.41
2019-06-01T07:59:00.429Z,23.45
2019-06-01T08:00:00.419Z,23.45
2019-06-01T08:01:00.427Z,23.47
2019-06-01T08:02:00.419Z,23.53
2019-06-01T08:03:00.399Z,23.53
2019-06-01T08:04:00.376Z,23.63
2019-06-01T08:05:00.370Z,23.72
2019-06-01T08:06:00.353Z,23.71
2019-06-01T08:07:00.361Z,23.62
2019-06-01T08:08:00.342Z,23.67
2019-06-01T08:09:00.322Z,23.69
2019-06-01T08:10:00.311Z,23.79
2019-06-01T08:11:00.301Z,23.87
2019-06-01T08:12:00.287Z,23.84
2019-06-01T08:13:00.292Z,23.93
2019-06-01T08:14:00.268Z,23.94
2019-06-01T08:15:00.261Z,23.93
2019-06-01T08:16:00.248Z,24.05
2019-06-01T08:17:00.238Z,23.96
2019-06-01T08:18:00.241Z,24.14
2019-06-01T08:19:00.214Z,24.18
2019-06-01T08:20:00.215Z,24.27
2019-06-01T08:21:00.202Z,24.27
2019-06-01T08:22:00.180Z,24.24
2019-06-01T08:23:00.184Z,24.37
2019-06-01T08:24:00.176Z,24.48
2019-06-01T08:25:00.147Z,24.61
2019-06-01T08:26:00.135Z,24.64
2019-06-01T08:27:00.143Z,24.83
2019-06-01T08:28:00.124Z,25.04
2019-06-01T08:29:00.114Z,25.38
2019-06-01T08:30:00.093Z,25.64
2019-06-01T08:31:00.085Z,25.90
2019-06-01T08:32:00.071Z,26.28
2019-06-01T08:33:00.074Z,26.50
2019-06-01T08:34:00.049Z,26.81
2019-06-01T08:35:08.769Z,27.20
2019-06-01T08:36:01.032Z,27.43
2019-06-01T08:37:00.017Z,27.63
2019-06-01T08:38:00.027Z,27.77
2019-06-01T08:38:59.999Z,27.87
2019-06-01T08:39:59.984Z,28.13
2019-06-01T08:40:59.973Z,28.23
2019-06-01T08:41:59.965Z,28.45
2019-06-01T08:42:59.961Z,28.52
2019-06-01T08:43:59.946Z,28.62
2019-06-01T08:44:59.944Z,28.58
2019-06-01T08:45:59.923Z,28.42
2019-06-01T08:46:59.912Z,28.55
2019-06-01T08:47:59.911Z,28.55
2019-06-01T08:48:59.890Z,28.67
2019-06-01T08:49:59.884Z,28.57
2019-06-01T08:50:59.873Z,28.55
2019-06-01T08:51:59.859Z,28.57
2019-06-01T08:52:59.858Z,28.73
2019-06-01T08:53:59.839Z,28.77
2019-06-01T08:54:59.828Z,29.11
2019-06-01T08:55:59.818Z,29.37
2019-06-01T08:56:59.806Z,29.67
2019-06-01T08:57:59.805Z,29.84
2019-06-01T08:58:59.785Z,29.97
2019-06-01T08:59:59.776Z,30.13
2019-06-01T09:00:59.765Z,30.32
2019-06-01T09:01:59.753Z,30.54
2019-06-01T09:02:59.773Z,30.85
2019-06-01T09:03:59.731Z,31.12
2019-06-01T09:04:59.737Z,31.27
2019-06-01T09:05:59.712Z,31.35
2019-06-01T09:06:59.703Z,31.52
2019-06-01T09:07:59.702Z,31.54
2019-06-01T09:08:59.690Z,31.42
2019-06-01T09:09:59.668Z,31.13
2019-06-01T09:10:59.658Z,31.20
2019-06-01T09:11:59.650Z,31.35
2019-06-01T09:12:59.641Z,31.76
2019-06-01T09:13:59.653Z,32.19
2019-06-01T09:14:59.618Z,32.54
2019-06-01T09:15:59.608Z,32.77
2019-06-01T09:16:59.596Z,32.98
2019-06-01T09:17:59.595Z,33.20
2019-06-01T09:18:59.597Z,33.47
2019-06-01T09:19:59.585Z,33.71
2019-06-01T09:20:59.555Z,33.81
2019-06-01T09:21:59.551Z,33.99
2019-06-01T09:22:59.538Z,34.21
2019-06-01T09:23:59.540Z,34.33
2019-06-01T09:24:59.524Z,34.73
2019-06-01T09:25:59.526Z,35.06
2019-06-01T09:26:59.499Z,35.40
2019-06-01T09:27:59.485Z,35.66
2019-06-01T09:28:59.506Z,36.00
2019-06-01T09:29:59.464Z,36.19
2019-06-01T09:30:59.466Z,36.15
2019-06-01T09:31:59.444Z,36.35
2019-06-01T09:32:59.433Z,36.55
2019-06-01T09:33:59.438Z,36.48
2019-06-01T09:34:59.418Z,36.37
2019-06-01T09:35:59.404Z,36.43
2019-06-01T09:36:59.396Z,36.52
2019-06-01T09:37:59.386Z,36.55
2019-06-01T09:38:59.386Z,36.74
2019-06-01T09:39:59.363Z,36.86
2019-06-01T09:40:59.359Z,37.04
2019-06-01T09:41:59.364Z,36.99
2019-06-01T09:42:59.340Z,36.94
2019-06-01T09:43:59.441Z,36.67
2019-06-01T09:44:59.319Z,36.15
2019-06-01T09:45:59.305Z,35.85
2019-06-01T09:46:59.293Z,35.81
2019-06-01T09:47:59.289Z,35.54
2019-06-01T09:48:59.289Z,35.44
2019-06-01T09:49:59.264Z,35.65
2019-06-01T09:50:59.254Z,35.21
2019-06-01T09:51:59.242Z,34.84
2019-06-01T09:52:59.233Z,34.40
2019-06-01T09:53:59.234Z,34.28
2019-06-01T09:54:59.222Z,34.76
2019-06-01T09:55:59.201Z,34.64
2019-06-01T09:56:59.196Z,34.23
2019-06-01T09:57:59.183Z,34.27
2019-06-01T09:58:59.185Z,34.60
2019-06-01T09:59:59.177Z,34.50
2019-06-01T10:00:59.154Z,33.93
2019-06-01T10:01:59.140Z,33.62
2019-06-01T10:02:59.129Z,33.89
2019-06-01T10:03:59.133Z,34.12
2019-06-01T10:04:59.109Z,34.31
2019-06-01T10:06:02.177Z,34.16
2019-06-01T10:06:59.088Z,34.34
2019-06-01T10:07:59.091Z,34.48
2019-06-01T10:08:59.079Z,34.56
2019-06-01T10:09:59.067Z,34.72
2019-06-01T10:10:59.048Z,34.88
2019-06-01T10:11:59.045Z,34.84
2019-06-01T10:12:59.031Z,34.72
2019-06-01T10:13:59.034Z,34.80
2019-06-01T10:14:59.007Z,34.81
2019-06-01T10:15:59.007Z,34.73
2019-06-01T10:16:58.987Z,34.40
2019-06-01T10:17:58.977Z,34.52
2019-06-01T10:18:59.030Z,34.52
2019-06-01T10:19:58.955Z,34.55
2019-06-01T10:20:58.947Z,34.55
2019-06-01T10:21:58.940Z,34.53
2019-06-01T10:22:58.924Z,34.48
2019-06-01T10:23:58.950Z,34.46
2019-06-01T10:24:58.910Z,34.40
2019-06-01T10:25:58.891Z,34.37
2019-06-01T10:26:58.882Z,34.26
2019-06-01T10:27:58.890Z,34.26
2019-06-01T10:28:58.872Z,34.27
2019-06-01T10:29:58.888Z,34.31
2019-06-01T10:30:58.844Z,34.27
2019-06-01T10:31:58.831Z,34.26
2019-06-01T10:32:58.830Z,34.21
2019-06-01T10:33:58.863Z,34.21
2019-06-01T10:34:58.816Z,34.18
2019-06-01T10:35:58.788Z,34.09
2019-06-01T10:36:58.781Z,34.15
2019-06-01T10:37:58.767Z,34.03
2019-06-01T10:38:58.756Z,33.97
2019-06-01T10:39:58.764Z,33.94
2019-06-01T10:40:58.742Z,33.93
2019-06-01T10:41:58.725Z,33.82
2019-06-01T10:42:58.716Z,33.72
2019-06-01T10:43:58.704Z,33.71
2019-06-01T10:44:58.704Z,33.63
2019-06-01T10:45:58.685Z,33.71
2019-06-01T10:46:58.686Z,33.55
2019-06-01T10:47:58.663Z,33.49
2019-06-01T10:48:58.657Z,33.29
2019-06-01T10:49:58.651Z,33.40
2019-06-01T10:50:58.633Z,33.56
2019-06-01T10:51:58.626Z,33.37
2019-06-01T10:52:58.610Z,33.40
2019-06-01T10:53:58.606Z,33.22
2019-06-01T10:54:58.599Z,32.71
2019-06-01T10:55:58.594Z,32.76
2019-06-01T10:56:58.582Z,32.43
2019-06-01T10:57:58.559Z,32.32
2019-06-01T10:59:00.462Z,32.36
2019-06-01T10:59:58.550Z,32.41
2019-06-01T11:00:58.528Z,32.40
2019-06-01T11:01:58.521Z,32.40
2019-06-01T11:02:58.510Z,32.39
2019-06-01T11:03:58.497Z,32.29
2019-06-01T11:04:58.498Z,32.34
2019-06-01T11:05:58.473Z,32.28
2019-06-01T11:06:58.467Z,32.14
2019-06-01T11:07:58.464Z,32.05
2019-06-01T11:08:58.442Z,31.97
2019-06-01T11:09:58.447Z,31.82
2019-06-01T11:10:58.434Z,31.68
2019-06-01T11:11:58.413Z,31.52
2019-06-01T11:12:58.405Z,31.40
2019-06-01T11:13:58.405Z,31.45
2019-06-01T11:14:58.401Z,31.38
2019-06-01T11:15:58.367Z,31.22
2019-06-01T11:16:58.411Z,31.18
2019-06-01T11:17:58.345Z,31.16
2019-06-01T11:18:58.336Z,31.23
2019-06-01T11:19:58.336Z,31.12
2019-06-01T11:20:58.315Z,31.15
2019-06-01T11:21:58.306Z,31.15
2019-06-01T11:22:58.292Z,31.23
2019-06-01T11:23:58.290Z,31.22
2019-06-01T11:24:58.283Z,31.20
2019-06-01T11:25:58.263Z,31.23
2019-06-01T11:26:58.335Z,31.07
2019-06-01T11:27:58.285Z,31.10
2019-06-01T11:28:58.231Z,31.09
2019-06-01T11:29:58.227Z,31.05
2019-06-01T11:30:58.209Z,31.01
2019-06-01T11:31:58.204Z,30.96
2019-06-01T11:32:58.233Z,30.81
2019-06-01T11:33:58.176Z,30.94
2019-06-01T11:34:58.175Z,30.82
2019-06-01T11:35:58.156Z,30.82
2019-06-01T11:37:05.109Z,30.68
2019-06-01T11:37:59.132Z,30.67
2019-06-01T11:38:58.125Z,30.86
2019-06-01T11:39:58.124Z,30.94
2019-06-01T11:40:58.104Z,31.05
2019-06-01T11:41:58.103Z,31.18
2019-06-01T11:42:58.089Z,31.12
2019-06-01T11:43:58.079Z,30.82
2019-06-01T11:44:58.086Z,30.51
2019-06-01T11:45:58.045Z,30.45
2019-06-01T11:46:58.036Z,30.38
2019-06-01T11:47:58.030Z,30.45
2019-06-01T11:48:58.017Z,30.38
2019-06-01T11:49:58.001Z,30.63
2019-06-01T11:50:58.010Z,30.83
2019-06-01T11:51:57.978Z,31.00
2019-06-01T11:52:57.970Z,31.10
2019-06-01T11:53:57.958Z,31.27
2019-06-01T11:54:57.949Z,31.30
2019-06-01T11:55:57.951Z,31.37
2019-06-01T11:56:57.925Z,31.45
2019-06-01T11:57:57.915Z,31.42
2019-06-01T11:58:57.908Z,31.47
2019-06-01T11:59:57.892Z,31.04
2019-06-01T12:00:57.920Z,31.01
2019-06-01T12:01:57.875Z,30.90
2019-06-01T12:02:57.861Z,30.76
2019-06-01T12:03:57.863Z,30.60
2019-06-01T12:04:57.841Z,30.38
2019-06-01T12:05:57.835Z,30.40
2019-06-01T12:07:15.752Z,30.21
2019-06-01T12:07:58.823Z,30.04
2019-06-01T12:08:57.798Z,29.94
2019-06-01T12:09:57.789Z,29.88
2019-06-01T12:10:57.786Z,29.82
2019-06-01T12:11:57.779Z,29.64
2019-06-01T12:12:57.755Z,29.52
2019-06-01T12:13:57.763Z,29.42
2019-06-01T12:14:57.732Z,29.41
2019-06-01T12:15:57.732Z,29.29
2019-06-01T12:16:57.719Z,29.25
2019-06-01T12:17:57.702Z,29.25
2019-06-01T12:18:57.690Z,29.15
2019-06-01T12:19:57.682Z,29.11
2019-06-01T12:20:57.678Z,28.95
2019-06-01T12:21:57.671Z,29.00
2019-06-01T12:22:57.646Z,28.82
2019-06-01T12:23:57.644Z,28.85
2019-06-01T12:24:57.629Z,28.74
2019-06-01T12:25:57.624Z,28.70
2019-06-01T12:26:57.604Z,28.62
2019-06-01T12:27:57.594Z,28.58
2019-06-01T12:28:57.584Z,28.58
2019-06-01T12:29:57.580Z,28.43
2019-06-01T12:30:57.570Z,28.45
2019-06-01T12:31:57.550Z,28.46
2019-06-01T12:32:57.547Z,28.42
2019-06-01T12:33:57.531Z,28.36
2019-06-01T12:34:57.520Z,28.35
2019-06-01T12:35:57.520Z,28.35
2019-06-01T12:36:57.524Z,28.25
2019-06-01T12:38:06.042Z,28.25
2019-06-01T12:38:58.476Z,28.21
2019-06-01T12:39:57.468Z,28.13
2019-06-01T12:40:57.464Z,28.05
2019-06-01T12:41:57.443Z,28.08
2019-06-01T12:42:57.435Z,28.09
2019-06-01T12:43:57.427Z,28.01
2019-06-01T12:44:57.411Z,28.02
2019-06-01T12:46:07.415Z,27.95
2019-06-01T12:46:58.391Z,28.01
2019-06-01T12:47:58.584Z,27.90
2019-06-01T12:48:57.378Z,27.87
2019-06-01T12:49:57.370Z,27.87
2019-06-01T12:50:57.375Z,27.81
2019-06-01T12:51:57.346Z,27.77